Time;durP1;ratioP1;P1;durP2;ratioP2;P2;SDS_P1;SDS_P2;PMS_P1;PMS_P2;Temp;Humidity;BMP_temperature;BMP_pressure;BME280_temperature;BME280_humidity;BME280_pressure;Samples;Min_cycle;Max_cycle;Signal;HPM_P1;HPM_P2
2023/07/29 21:34:33;;;;;;;;;;;20.30;83.40;;;;;;5066282;28;20364;-76
2023/07/29 21:37:11;;;;;;;;;;;20.20;83.60;;;;;;5066603;28;19920;-77
2023/07/29 21:40:06;;;;;;;;;;;20.20;83.60;;;;;;5044086;28;19927;-77
2023/07/29 21:42:46;;;;;;;;;;;20.20;83.60;;;;;;5064637;28;20339;-79
2023/07/29 21:45:24;;;;;;;;;;;20.20;83.60;;;;;;5068393;28;19924;-77
2023/07/29 21:47:59;;;;;;;;;;;20.20;83.60;;;;;;5089176;22;20021;-68
2023/07/29 21:50:34;;;;;;;;;;;20.10;83.70;;;;;;5057298;28;19926;-67
2023/07/29 21:53:15;;;;;;;;;;;20.10;83.80;;;;;;5055240;28;19974;-67
2023/07/29 21:55:53;;;;;;;;;;;20.10;83.90;;;;;;5056312;28;20368;-67
2023/07/29 21:58:31;;;;;;;;;;;20.10;84.10;;;;;;5051131;28;19929;-67
2023/07/29 22:01:06;;;;;;;;;;;20.10;84.10;;;;;;5049398;28;19929;-66
2023/07/29 22:03:46;;;;;;;;;;;20.00;84.30;;;;;;5052555;28;20386;-67
2023/07/29 22:09:38;;;;;;;;;;;20.10;84.40;;;;;;5051055;28;20386;-67
2023/07/29 22:12:18;;;;;;;;;;;20.10;84.40;;;;;;5051169;28;19959;-69
2023/07/29 22:14:54;;;;;;;;;;;20.10;84.60;;;;;;5053798;28;19924;-67
2023/07/29 22:17:31;;;;;;;;;;;20.10;84.90;;;;;;5055475;28;19932;-66
2023/07/29 22:20:08;;;;;;;;;;;20.00;85.60;;;;;;5054783;28;19928;-65
2023/07/29 22:22:40;;;;;;;;;;;20.00;85.80;;;;;;5053285;28;19936;-66
2023/07/29 22:25:19;;;;;;;;;;;19.90;86.10;;;;;;5054912;28;19924;-66
2023/07/29 22:27:56;;;;;;;;;;;19.80;86.20;;;;;;5052597;28;20014;-65
2023/07/29 22:30:26;;;;;;;;;;;19.90;86.20;;;;;;5054492;28;19932;-65
2023/07/29 22:33:00;;;;;;;;;;;19.90;86.20;;;;;;5055927;28;19974;-66
2023/07/29 22:35:42;;;;;;;;;;;19.80;86.20;;;;;;5053746;28;20395;-65
2023/07/29 22:44:47;;;;;;;;;;;19.80;86.00;;;;;;3804065;22;19930;-69
2023/07/29 22:47:25;;;;;;;;;;;19.80;86.10;;;;;;4981793;28;19936;-74
2023/07/29 22:50:00;;;;;;;;;;;19.80;86.20;;;;;;4982386;28;19980;-74
2023/07/29 22:52:44;;;;;;;;;;;19.70;86.30;;;;;;4982832;28;19929;-74
2023/07/29 22:58:34;;;;;;;;;;;19.70;86.30;;;;;;4984642;28;19944;-73
2023/07/29 23:01:13;;;;;;;;;;;19.70;86.40;;;;;;4984893;28;19925;-74
2023/07/29 23:04:36;;;;;;;;;;;19.70;86.40;;;;;;4982629;28;19932;-72
2023/07/29 23:07:15;;;;;;;;;;;19.70;86.30;;;;;;4981000;28;19922;-72
2023/07/29 23:09:55;;;;;;;;;;;19.60;86.20;;;;;;4981155;28;19980;-73
2023/07/29 23:12:30;;;;;;;;;;;19.60;86.30;;;;;;4980875;28;20049;-73
2023/07/29 23:15:07;;;;;;;;;;;19.60;86.30;;;;;;4981683;28;20415;-73
2023/07/29 23:18:37;;;;;;;;;;;19.60;86.10;;;;;;4980809;28;19928;-72
2023/07/29 23:21:44;;;;;;;;;;;19.60;86.10;;;;;;4981444;28;19932;-75
2023/07/29 23:24:21;;;;;;;;;;;19.60;86.00;;;;;;4981148;28;19930;-73
2023/07/29 23:26:55;;;;;;;;;;;19.60;85.80;;;;;;4981487;28;19996;-72
2023/07/29 23:29:30;;;;;;;;;;;19.60;85.80;;;;;;4985294;28;19949;-74
2023/07/29 23:32:04;;;;;;;;;;;19.60;85.80;;;;;;4981847;28;19925;-74
2023/07/29 23:34:47;;;;;;;;;;;19.60;86.00;;;;;;4982570;28;20376;-74
2023/07/29 23:37:25;;;;;;;;;;;19.60;86.00;;;;;;4988826;28;19944;-72
2023/07/29 23:39:55;;;;;;;;;;;19.50;86.00;;;;;;4980195;28;20065;-72
2023/07/29 23:42:48;;;;;;;;;;;19.60;85.90;;;;;;4984559;28;19922;-74
2023/07/29 23:45:29;;;;;;;;;;;19.50;86.00;;;;;;4984597;28;19999;-73
2023/07/29 23:48:09;;;;;;;;;;;19.40;86.00;;;;;;4981755;28;19930;-74
2023/07/29 23:50:52;;;;;;;;;;;19.40;86.10;;;;;;4982065;28;19928;-73
2023/07/29 23:53:24;;;;;;;;;;;19.40;85.90;;;;;;4982639;28;19969;-74
2023/07/29 23:55:57;;;;;;;;;;;19.40;85.90;;;;;;4980634;28;19961;-74
2023/07/29 23:58:26;;;;;;;;;;;19.40;85.90;;;;;;4981657;28;20006;-75
